Time;durP1;ratioP1;P1;durP2;ratioP2;P2;SDS_P1;SDS_P2;PMS_P1;PMS_P2;Temp;Humidity;BMP_temperature;BMP_pressure;BME280_temperature;BME280_humidity;BME280_pressure;Samples;Min_cycle;Max_cycle;Signal;HPM_P1;HPM_P2
2023/04/28 00:00:57;;;;;;;15.65;9.15;;;;;;;;;;5027386;28;20219;-89
2023/04/28 00:06:14;;;;;;;10.77;9.25;;;;;;;;;;5026975;28;20251;-89
2023/04/28 00:11:46;;;;;;;13.68;10.05;;;;;;;;;;5015382;28;20268;-89
2023/04/28 00:14:27;;;;;;;11.00;8.02;;;;;;;;;;5019424;28;20292;-89
2023/04/28 00:23:05;;;;;;;9.02;6.88;;;;;;;;;;5018183;28;20205;-90
2023/04/28 00:25:50;;;;;;;13.30;7.15;;;;;;;;;;5018586;28;20217;-89
2023/04/28 00:28:55;;;;;;;9.57;7.97;;;5.90;99.90;;;;;;5017666;28;20228;-90
2023/04/28 00:31:48;;;;;;;7.90;6.88;;;;;;;;;;5019882;28;20246;-89
2023/04/28 00:34:30;;;;;;;10.70;7.85;;;;;;;;;;5031355;28;20189;-89
2023/04/28 00:37:07;;;;;;;14.25;6.90;;;;;;;;;;5038254;28;20229;-89
2023/04/28 00:39:48;;;;;;;10.40;7.60;;;;;;;;;;5030152;28;20209;-89
2023/04/28 00:46:04;;;;;;;13.05;8.20;;;;;;;;;;5015154;28;20578;-89
2023/04/28 00:51:43;;;;;;;7.47;6.75;;;;;;;;;;5020044;28;20216;-89
2023/04/28 00:54:16;;;;;;;9.88;7.32;;;;;;;;;;5023418;28;20212;-89
2023/04/28 00:57:08;;;;;;;10.80;7.43;;;;;;;;;;5025382;28;20306;-88
2023/04/28 01:00:05;;;;;;;8.82;7.55;;;5.60;1.00;;;;;;5033864;28;20211;-88
2023/04/28 01:05:38;;;;;;;7.82;7.00;;;;;;;;;;5028577;28;20400;-87
2023/04/28 01:08:44;;;;;;;8.82;7.38;;;5.70;1.00;;;;;;5035749;28;20297;-88
2023/04/28 01:11:16;;;;;;;9.75;7.35;;;;;;;;;;5035099;28;20209;-88
2023/04/28 01:13:48;;;;;;;9.02;6.45;;;;;;;;;;5029890;28;20668;-89
2023/04/28 01:16:24;;;;;;;11.45;7.28;;;;;;;;;;5025809;28;20232;-89
2023/04/28 01:18:52;;;;;;;8.43;5.93;;;;;;;;;;5026050;28;20212;-90
2023/04/28 01:21:27;;;;;;;8.80;6.53;;;5.60;1.00;;;;;;5023675;28;20268;-90
2023/04/28 01:23:56;;;;;;;10.77;7.00;;;5.50;1.00;;;;;;5022962;28;20200;-89
2023/04/28 01:26:23;;;;;;;10.38;5.95;;;5.10;99.90;;;;;;5022185;28;20735;-90
2023/04/28 01:28:50;;;;;;;9.18;8.18;;;5.50;1.00;;;;;;5022542;28;20235;-90
2023/04/28 01:31:17;;;;;;;6.13;5.50;;;5.40;1.00;;;;;;5022993;28;20236;-89
2023/04/28 01:33:44;;;;;;;7.57;6.60;;;5.40;1.00;;;;;;5022077;28;20263;-90
2023/04/28 01:36:11;;;;;;;9.52;5.88;;;5.40;1.00;;;;;;5022393;28;20249;-87
2023/04/28 01:38:38;;;;;;;7.18;5.88;;;5.20;99.90;;;;;;5030041;28;20197;-89
2023/04/28 01:41:06;;;;;;;7.50;5.80;;;5.70;99.90;;;;;;5040480;28;20194;-88
2023/04/28 01:43:33;;;;;;;10.40;5.90;;;5.40;1.00;;;;;;5040712;28;20211;-88
2023/04/28 01:46:00;;;;;;;10.88;6.60;;;5.40;99.90;;;;;;5032273;28;20212;-88
2023/04/28 01:48:27;;;;;;;6.20;5.60;;;6.30;99.90;;;;;;5034178;28;20248;-88
2023/04/28 01:50:54;;;;;;;8.20;5.95;;;5.60;99.90;;;;;;5035365;28;20205;-89
2023/04/28 01:53:21;;;;;;;11.20;7.20;;;;;;;;;;5028881;28;20259;-88
2023/04/28 01:55:48;;;;;;;7.15;5.60;;;5.60;1.00;;;;;;5024594;28;20212;-88
2023/04/28 01:58:17;;;;;;;8.30;6.32;;;5.50;1.00;;;;;;5024044;28;20604;-88
2023/04/28 02:00:44;;;;;;;9.40;6.75;;;5.50;1.00;;;;;;5024096;28;20212;-88
2023/04/28 02:03:12;;;;;;;6.85;6.20;;;;;;;;;;5022967;28;20295;-89
2023/04/28 02:05:39;;;;;;;10.10;6.82;;;;;;;;;;5032815;28;20205;-89
2023/04/28 02:08:07;;;;;;;9.52;6.38;;;;;;;;;;5038675;28;20224;-89
2023/04/28 02:10:34;;;;;;;8.35;6.70;;;;;;;;;;5039991;28;20236;-89
2023/04/28 02:13:01;;;;;;;8.48;6.60;;;;;;;;;;5030443;28;20308;-89
2023/04/28 02:15:30;;;;;;;7.28;6.57;;;;;;;;;;5024544;28;20212;-89
2023/04/28 02:18:00;;;;;;;8.18;6.57;;;;;;;;;;5026460;28;20294;-89
2023/04/28 02:20:27;;;;;;;8.20;6.38;;;;;;;;;;5040167;28;20212;-89
2023/04/28 02:22:55;;;;;;;7.28;6.03;;;;;;;;;;5040125;28;20239;-89
2023/04/28 02:25:24;;;;;;;8.43;6.18;;;;;;;;;;5040201;28;20205;-88
2023/04/28 02:27:51;;;;;;;10.52;6.90;;;;;;;;;;5039891;28;20232;-88
2023/04/28 02:30:19;;;;;;;9.90;7.35;;;;;;;;;;5027099;28;20224;-88
2023/04/28 02:32:48;;;;;;;7.65;6.20;;;5.20;1.00;;;;;;5025460;28;20198;-89
2023/04/28 02:35:18;;;;;;;9.00;6.28;;;;;;;;;;5039340;28;20185;-88
2023/04/28 02:37:45;;;;;;;9.57;7.00;;;;;;;;;;5039724;28;20236;-89
2023/04/28 02:40:13;;;;;;;6.88;6.18;;;;;;;;;;5031411;28;20193;-89
2023/04/28 02:42:40;;;;;;;8.57;6.63;;;;;;;;;;5039340;28;20185;-88
2023/04/28 02:45:08;;;;;;;9.68;6.63;;;;;;;;;;5035362;28;20185;-88
2023/04/28 02:47:36;;;;;;;18.52;8.55;;;;;;;;;;5025664;28;20275;-89
2023/04/28 02:50:05;;;;;;;6.80;6.15;;;;;;;;;;5025425;28;20213;-89
2023/04/28 02:52:32;;;;;;;7.15;5.75;;;;;;;;;;5026432;28;20232;-89
2023/04/28 02:55:03;;;;;;;7.32;6.63;;;;;;;;;;5026964;28;20201;-88
2023/04/28 02:57:31;;;;;;;7.03;6.32;;;;;;;;;;5030055;28;20280;-88
2023/04/28 02:59:59;;;;;;;7.82;6.30;;;;;;;;;;5027669;28;20582;-89
2023/04/28 03:02:28;;;;;;;10.65;7.03;;;;;;;;;;5028772;28;20224;-88
2023/04/28 03:04:55;;;;;;;10.57;7.40;;;;;;;;;;5029789;28;20220;-89
2023/04/28 03:07:30;;;;;;;18.08;6.80;;;;;;;;;;5027182;28;20225;-88
2023/04/28 03:10:04;;;;;;;9.80;7.20;;;5.00;99.90;;;;;;5037280;28;20196;-89
2023/04/28 03:12:57;;;;;;;8.52;6.95;;;;;;;;;;5038374;28;20260;-89
2023/04/28 03:15:24;;;;;;;9.07;6.82;;;;;;;;;;5033040;28;20240;-89
2023/04/28 03:17:51;;;;;;;8.88;6.55;;;;;;;;;;5035629;28;20232;-89
2023/04/28 03:20:58;;;;;;;12.13;7.13;;;4.90;1.00;;;;;;5024573;28;20641;-89
2023/04/28 03:23:38;;;;;;;10.95;6.50;;;;;;;;;;4983231;28;20724;-90
2023/04/28 03:29:08;;;;;;;9.73;6.40;;;;;;;;;;5013489;28;20246;-86
2023/04/28 03:31:35;;;;;;;6.95;5.72;;;;;;;;;;5022461;28;20251;-87
2023/04/28 03:34:29;;;;;;;9.13;5.80;;;5.00;1.00;;;;;;5021688;28;20643;-89
2023/04/28 03:37:07;;;;;;;7.30;5.45;;;;;;;;;;5035424;28;20237;-88
2023/04/28 03:39:41;;;;;;;9.65;5.68;;;;;;;;;;5038541;28;20189;-89
2023/04/28 03:42:13;;;;;;;10.23;6.72;;;;;;;;;;5038993;28;20175;-90
2023/04/28 03:44:47;;;;;;;9.07;5.22;;;;;;;;;;5033955;28;20263;-88
2023/04/28 03:47:15;;;;;;;7.80;5.28;;;;;;;;;;5036014;28;20215;-89
2023/04/28 03:49:44;;;;;;;5.55;4.78;;;;;;;;;;5025541;28;20240;-89
2023/04/28 03:52:36;;;;;;;5.60;4.85;;;;;;;;;;5038308;28;20215;-90
2023/04/28 03:55:05;;;;;;;6.72;5.15;;;;;;;;;;5038276;28;20197;-90
2023/04/28 03:57:32;;;;;;;8.73;5.68;;;4.70;1.00;;;;;;5029565;28;20225;-90
2023/04/28 03:59:59;;;;;;;11.85;6.57;;;4.50;99.90;;;;;;5019613;28;20528;-89
2023/04/28 04:02:26;;;;;;;13.93;5.65;;;4.60;1.00;;;;;;5022816;28;20200;-88
2023/04/28 04:04:53;;;;;;;12.85;6.72;;;;;;;;;;5029614;28;20231;-89
2023/04/28 04:07:22;;;;;;;8.00;6.78;;;4.80;1.00;;;;;;5035798;28;20239;-89
2023/04/28 04:09:50;;;;;;;6.97;6.13;;;4.80;1.00;;;;;;5035925;28;20204;-90
2023/04/28 04:12:22;;;;;;;12.30;6.63;;;;;;;;;;5019334;28;20707;-89
2023/04/28 04:14:58;;;;;;;8.13;5.85;;;;;;;;;;5018624;28;20208;-90
2023/04/28 04:17:27;;;;;;;6.18;5.35;;;;;;;;;;5018415;28;20225;-90
2023/04/28 04:19:55;;;;;;;11.30;5.63;;;;;;;;;;5020123;28;20201;-90
2023/04/28 04:22:22;;;;;;;8.05;5.13;;;;;;;;;;5019783;28;20209;-90
2023/04/28 04:24:49;;;;;;;9.23;5.60;;;;;;;;;;5031390;28;20228;-89
2023/04/28 04:27:19;;;;;;;8.55;6.15;;;;;;;;;;5035536;28;20772;-89
2023/04/28 04:29:46;;;;;;;7.07;6.28;;;;;;;;;;5026215;28;20204;-89
2023/04/28 04:32:13;;;;;;;13.27;6.40;;;;;;;;;;5022433;28;20702;-89
2023/04/28 04:34:43;;;;;;;7.93;5.88;;;;;;;;;;5023024;28;20201;-90
2023/04/28 04:37:10;;;;;;;10.88;5.78;;;;;;;;;;5029294;28;20280;-89
2023/04/28 04:39:38;;;;;;;13.15;6.65;;;;;;;;;;5040665;28;20192;-88
2023/04/28 04:42:05;;;;;;;6.18;5.53;;;5.30;99.90;;;;;;5042183;28;20212;-88
2023/04/28 04:44:33;;;;;;;7.72;5.80;;;;;;;;;;5041600;28;20217;-88
2023/04/28 04:47:00;;;;;;;8.10;5.55;;;5.10;99.90;;;;;;5041555;28;20232;-88
2023/04/28 04:49:27;;;;;;;12.00;6.38;;;5.20;1.00;;;;;;5040196;28;20240;-89
2023/04/28 04:51:54;;;;;;;10.77;5.63;;;5.50;99.90;;;;;;5040228;28;20249;-89
2023/04/28 04:54:20;;;;;;;7.90;6.00;;;5.30;1.00;;;;;;5039397;28;20243;-89
2023/04/28 04:56:47;;;;;;;6.47;5.85;;;5.30;1.00;;;;;;5040455;28;20231;-89
2023/04/28 04:59:14;;;;;;;7.68;5.45;;;4.20;99.90;;;;;;5039767;28;20217;-88
2023/04/28 05:01:43;;;;;;;10.60;6.00;;;;;;;;;;5030579;28;20209;-89
2023/04/28 05:04:10;;;;;;;10.27;6.05;;;5.40;1.00;;;;;;5023948;28;20255;-88
2023/04/28 05:06:37;;;;;;;10.15;6.57;;;5.40;1.00;;;;;;5023666;28;20228;-88
2023/04/28 05:09:06;;;;;;;11.88;4.85;;;5.50;1.00;;;;;;5023307;28;20225;-88
2023/04/28 05:11:33;;;;;;;26.92;15.88;;;5.60;1.00;;;;;;5021847;28;20209;-88
2023/04/28 05:14:00;;;;;;;9.40;5.07;;;5.40;99.90;;;;;;5022032;28;20229;-88
2023/04/28 05:16:26;;;;;;;6.90;5.30;;;5.70;99.90;;;;;;5022641;28;20231;-88
2023/04/28 05:18:55;;;;;;;8.57;6.22;;;5.60;1.00;;;;;;5022272;28;20268;-89
2023/04/28 05:21:24;;;;;;;11.98;6.03;;;6.20;99.90;;;;;;5026798;28;20205;-89
2023/04/28 05:23:52;;;;;;;11.68;5.93;;;5.90;1.00;;;;;;5039157;28;20228;-89
2023/04/28 05:26:22;;;;;;;15.80;7.32;;;6.20;99.90;;;;;;5027800;28;20236;-89
2023/04/28 05:28:49;;;;;;;9.93;6.20;;;6.20;99.90;;;;;;5023849;28;20221;-89
2023/04/28 05:31:16;;;;;;;8.05;6.47;;;6.30;99.90;;;;;;5023918;28;20236;-89
2023/04/28 05:33:43;;;;;;;8.73;5.80;;;6.60;1.00;;;;;;5022148;28;20201;-89
2023/04/28 05:36:12;;;;;;;15.18;6.63;;;6.40;1.00;;;;;;5037060;28;20268;-88
2023/04/28 05:38:39;;;;;;;18.15;6.70;;;8.50;1.00;;;;;;5040736;28;20196;-87
2023/04/28 05:41:06;;;;;;;8.45;6.35;;;6.70;99.90;;;;;;5028826;28;20611;-89
2023/04/28 05:43:33;;;;;;;8.25;6.00;;;;;;;;;;5022822;28;20268;-89
2023/04/28 05:46:00;;;;;;;7.57;6.82;;;6.90;99.90;;;;;;5021575;28;20221;-89
2023/04/28 05:48:28;;;;;;;9.65;5.57;;;;;;;;;;5023134;28;20224;-89
2023/04/28 05:50:55;;;;;;;6.80;5.95;;;7.20;1.00;;;;;;5036300;28;20235;-89
2023/04/28 05:53:23;;;;;;;9.38;5.95;;;7.40;99.90;;;;;;5035553;28;20232;-88
2023/04/28 05:55:50;;;;;;;9.80;6.35;;;7.50;99.90;;;;;;5032252;28;20209;-88
2023/04/28 05:58:19;;;;;;;7.10;5.25;;;7.50;99.90;;;;;;5034564;28;20229;-89
2023/04/28 06:00:46;;;;;;;9.07;5.40;;;7.80;1.00;;;;;;5022881;28;20282;-88
2023/04/28 06:03:17;;;;;;;11.37;4.80;;;7.60;99.90;;;;;;5018633;28;20197;-88
2023/04/28 06:05:44;;;;;;;6.30;5.13;;;7.70;99.90;;;;;;5019173;28;20456;-88
2023/04/28 06:08:11;;;;;;;8.77;5.70;;;7.80;99.90;;;;;;5019548;28;20538;-88
2023/04/28 06:10:40;;;;;;;15.98;5.70;;;7.90;99.90;;;;;;5027911;28;20266;-89
2023/04/28 06:13:08;;;;;;;8.50;5.67;;;;;;;;;;5039182;28;20208;-88
2023/04/28 06:15:37;;;;;;;8.40;5.30;;;8.00;99.90;;;;;;5039423;28;20444;-89
2023/04/28 06:18:06;;;;;;;8.27;5.63;;;;;;;;;;5038657;28;20464;-88
2023/04/28 06:20:41;;;;;;;7.10;5.17;;;;;;;;;;5026560;28;20448;-89
2023/04/28 06:23:19;;;;;;;15.70;5.80;;;;;;;;;;5026448;28;20422;-88
2023/04/28 06:26:12;;;;;;;8.93;6.60;;;8.70;99.90;;;;;;5022441;28;20471;-88
2023/04/28 06:28:39;;;;;;;6.87;4.63;;;;;;;;;;5019824;28;20480;-90
2023/04/28 06:31:06;;;;;;;9.30;5.20;;;;;;;;;;5021143;28;20434;-89
2023/04/28 06:33:36;;;;;;;6.50;4.80;;;;;;;;;;5020077;28;20430;-88
2023/04/28 06:36:18;;;;;;;9.93;7.20;;;8.90;99.90;;;;;;5018594;28;20932;-89
2023/04/28 06:39:08;;;;;;;7.93;4.97;;;;;;;;;;5032066;28;20488;-89
2023/04/28 06:41:42;;;;;;;12.33;5.90;;;;;;;;;;5026786;28;20458;-90
2023/04/28 06:44:14;;;;;;;9.87;6.10;;;;;;;;;;5021528;28;20510;-90
2023/04/28 06:46:52;;;;;;;12.77;5.87;;;;;;;;;;5020498;28;20805;-90
2023/04/28 06:49:32;;;;;;;5.30;4.60;;;;;;;;;;5018251;28;20450;-91
2023/04/28 06:52:08;;;;;;;6.80;5.17;;;;;;;;;;5020161;28;20452;-90
2023/04/28 06:54:38;;;;;;;6.17;4.40;;;;;;;;;;5037121;28;20479;-89
2023/04/28 06:57:12;;;;;;;7.47;5.17;;;;;;;;;;5034338;28;20467;-89
2023/04/28 06:59:46;;;;;;;11.10;5.43;;;;;;;;;;5019094;28;20483;-89
2023/04/28 07:02:50;;;;;;;4.90;4.50;;;10.10;99.90;;;;;;5019960;28;20464;-90
2023/04/28 07:05:41;;;;;;;8.43;4.67;;;;;;;;;;5019299;28;20447;-89
2023/04/28 07:08:16;;;;;;;6.47;5.40;;;;;;;;;;5035287;28;20456;-89
2023/04/28 07:10:44;;;;;;;8.37;5.70;;;;;;;;;;5038243;28;20441;-89
2023/04/28 07:13:29;;;;;;;7.87;4.40;;;;;;;;;;5038574;28;20448;-89
2023/04/28 07:16:22;;;;;;;13.63;5.80;;;;;;;;;;5023071;28;20876;-89
2023/04/28 07:18:48;;;;;;;11.40;5.27;;;10.60;99.90;;;;;;5055313;22;20564;-86
2023/04/28 07:21:15;;;;;;;6.10;4.27;;;10.70;99.90;;;;;;5014797;28;20443;-86
2023/04/28 07:23:44;;;;;;;8.03;3.90;;;10.70;46.90;;;;;;5019055;28;20425;-87
2023/04/28 07:26:15;;;;;;;6.40;4.00;;;10.80;99.90;;;;;;5018618;28;20437;-86
2023/04/28 07:28:43;;;;;;;6.63;5.53;;;10.40;1.00;;;;;;5018722;28;20560;-86
2023/04/28 07:31:11;;;;;;;5.23;4.50;;;;;;;;;;5017629;28;20427;-86
2023/04/28 07:33:37;;;;;;;4.87;4.33;;;11.10;86.90;;;;;;5014367;28;20492;-86
2023/04/28 07:36:05;;;;;;;6.30;4.03;;;10.90;99.90;;;;;;5005554;28;20449;-87
2023/04/28 07:38:34;;;;;;;6.97;4.00;;;11.30;1.00;;;;;;5005273;28;20500;-87
2023/04/28 07:41:01;;;;;;;7.77;4.13;;;11.20;99.90;;;;;;5004163;28;20483;-86
2023/04/28 07:43:28;;;;;;;7.77;4.90;;;11.70;42.80;;;;;;5005114;28;20517;-88
2023/04/28 07:45:56;;;;;;;6.20;4.73;;;11.20;1.00;;;;;;5004617;28;20966;-87
2023/04/28 07:48:24;;;;;;;5.20;4.50;;;;;;;;;;5004558;28;20472;-88
2023/04/28 07:50:52;;;;;;;5.33;4.47;;;;;;;;;;5003595;28;20464;-88
2023/04/28 07:53:19;;;;;;;8.63;4.33;;;11.20;1.00;;;;;;5003396;28;20466;-87
2023/04/28 07:55:46;;;;;;;6.57;4.47;;;11.40;1.00;;;;;;5011368;28;20455;-87
2023/04/28 07:58:12;;;;;;;7.80;4.53;;;11.20;99.90;;;;;;5009364;28;20480;-88
2023/04/28 08:00:39;;;;;;;9.80;4.53;;;11.40;99.90;;;;;;5010334;28;20523;-87
2023/04/28 08:03:11;;;;;;;8.13;5.20;;;11.40;62.80;;;;;;5011367;28;20453;-88
2023/04/28 08:05:38;;;;;;;11.50;5.00;;;11.10;1.00;;;;;;5017848;28;20437;-86
2023/04/28 08:08:05;;;;;;;5.03;4.30;;;10.80;99.90;;;;;;5021988;28;20479;-87
2023/04/28 08:10:32;;;;;;;6.60;4.40;;;11.40;59.70;;;;;;5019049;28;20513;-87
2023/04/28 08:12:59;;;;;;;10.47;4.97;;;11.70;99.90;;;;;;5009016;28;20539;-87
2023/04/28 08:15:26;;;;;;;8.37;4.60;;;11.70;66.60;;;;;;5008268;28;20957;-86
2023/04/28 08:17:53;;;;;;;8.47;4.63;;;12.00;43.60;;;;;;5006111;28;20500;-87
2023/04/28 08:20:21;;;;;;;10.13;5.40;;;11.80;99.90;;;;;;5007772;28;20531;-87
2023/04/28 08:22:48;;;;;;;5.73;5.20;;;11.80;99.90;;;;;;5006505;28;20515;-87
2023/04/28 08:25:15;;;;;;;8.50;5.70;;;11.80;99.90;;;;;;5006862;28;20457;-86
2023/04/28 08:27:42;;;;;;;5.57;4.27;;;11.90;99.90;;;;;;5001972;28;20556;-87
2023/04/28 08:30:09;;;;;;;5.77;4.90;;;12.00;99.90;;;;;;5004103;28;20520;-87
2023/04/28 08:32:36;;;;;;;4.40;4.00;;;12.60;80.70;;;;;;5007103;28;20455;-87
2023/04/28 08:35:03;;;;;;;6.07;5.43;;;12.60;99.90;;;;;;5008170;28;20854;-88
2023/04/28 08:37:32;;;;;;;6.70;4.30;;;12.50;99.90;;;;;;5011040;28;20461;-87
2023/04/28 08:40:03;;;;;;;6.43;5.63;;;12.60;99.90;;;;;;5011769;28;20468;-88
2023/04/28 08:42:31;;;;;;;5.43;4.20;;;12.70;1.00;;;;;;5012138;28;20433;-87
2023/04/28 08:44:59;;;;;;;9.20;5.60;;;12.80;1.00;;;;;;5016697;28;20457;-88
2023/04/28 08:47:34;;;;;;;6.17;5.40;;;12.60;99.90;;;;;;5016340;28;20480;-87
2023/04/28 08:50:04;;;;;;;6.13;4.93;;;12.90;1.00;;;;;;5017466;28;20472;-87
2023/04/28 08:52:32;;;;;;;4.90;4.03;;;12.40;1.00;;;;;;5009955;28;20448;-88
2023/04/28 08:55:01;;;;;;;5.50;4.50;;;12.70;99.90;;;;;;5014793;28;20449;-88
2023/04/28 08:57:32;;;;;;;10.33;4.83;;;12.70;99.90;;;;;;5013317;28;20477;-89
2023/04/28 08:59:59;;;;;;;7.97;4.57;;;12.60;99.90;;;;;;5015857;28;20483;-87
2023/04/28 09:02:26;;;;;;;7.30;5.13;;;12.70;99.90;;;;;;5019951;28;20408;-86
2023/04/28 09:04:53;;;;;;;6.30;4.17;;;12.70;1.00;;;;;;5020571;28;20433;-88
2023/04/28 09:07:21;;;;;;;4.90;4.40;;;;;;;;;;5007523;28;20502;-87
2023/04/28 09:09:49;;;;;;;13.33;5.40;;;13.20;1.00;;;;;;5004849;28;20485;-87
2023/04/28 09:12:19;;;;;;;8.63;5.13;;;13.20;99.90;;;;;;5002384;28;20483;-87
2023/04/28 09:14:58;;;;;;;12.53;5.90;;;13.30;99.90;;;;;;5004949;28;20444;-87
2023/04/28 09:17:24;;;;;;;7.03;4.20;;;13.60;99.90;;;;;;5002210;28;20551;-87
2023/04/28 09:19:51;;;;;;;9.70;4.60;;;13.50;34.10;;;;;;5003693;28;20425;-86
2023/04/28 09:22:28;;;;;;;10.73;5.20;;;13.30;99.90;;;;;;5005056;28;20536;-87
2023/04/28 09:24:56;;;;;;;7.90;5.80;;;13.20;99.90;;;;;;5004553;28;20433;-87
2023/04/28 09:27:27;;;;;;;6.83;5.73;;;13.20;99.90;;;;;;5002876;28;20540;-87
2023/04/28 09:29:54;;;;;;;8.03;6.17;;;13.40;99.90;;;;;;5007815;28;20476;-87
2023/04/28 09:32:22;;;;;;;7.50;5.90;;;13.50;99.90;;;;;;5005878;28;20437;-87
2023/04/28 09:34:51;;;;;;;8.03;5.20;;;13.90;99.90;;;;;;5003255;28;20893;-87
2023/04/28 09:37:19;;;;;;;5.83;5.20;;;13.70;99.90;;;;;;5003559;28;20857;-88
2023/04/28 09:39:48;;;;;;;7.47;5.23;;;13.70;99.90;;;;;;5016594;28;20449;-87
2023/04/28 09:42:37;;;;;;;7.03;4.83;;;13.70;1.00;;;;;;5013701;28;20468;-87
2023/04/28 09:45:05;;;;;;;8.37;6.40;;;13.90;1.00;;;;;;5015059;28;20440;-88
2023/04/28 09:47:34;;;;;;;9.23;5.60;;;13.60;16.90;;;;;;5011787;28;20555;-86
2023/04/28 09:50:03;;;;;;;10.27;6.40;;;13.90;99.90;;;;;;5017532;28;20485;-87
2023/04/28 09:52:31;;;;;;;6.73;5.47;;;13.80;99.90;;;;;;5018636;28;20450;-86
2023/04/28 09:54:58;;;;;;;6.00;5.20;;;13.90;99.90;;;;;;5016261;28;20456;-88
2023/04/28 09:57:25;;;;;;;8.30;6.37;;;14.00;99.90;;;;;;5013638;28;20439;-87
2023/04/28 09:59:54;;;;;;;8.67;5.77;;;14.30;99.90;;;;;;5001735;28;20445;-86
2023/04/28 10:02:22;;;;;;;6.93;5.40;;;14.20;99.90;;;;;;5005189;28;20458;-85
2023/04/28 10:04:51;;;;;;;13.33;6.30;;;14.30;99.90;;;;;;5007696;28;20499;-89
2023/04/28 10:07:21;;;;;;;8.00;6.10;;;14.50;99.90;;;;;;5009725;28;20488;-87
2023/04/28 10:09:50;;;;;;;9.13;5.60;;;14.40;99.90;;;;;;5005999;28;20472;-87
2023/04/28 10:12:17;;;;;;;6.07;5.30;;;14.30;99.90;;;;;;5004235;28;20452;-87
2023/04/28 10:14:44;;;;;;;7.87;4.90;;;14.40;99.90;;;;;;5005959;28;20444;-88
2023/04/28 10:17:14;;;;;;;7.67;6.20;;;14.50;1.00;;;;;;5010400;28;20555;-86
2023/04/28 10:19:41;;;;;;;5.83;5.40;;;;;;;;;;5013065;28;20425;-86
2023/04/28 10:22:24;;;;;;;7.47;5.10;;;14.40;1.00;;;;;;5012686;28;20501;-86
2023/04/28 10:25:08;;;;;;;7.83;6.33;;;14.40;99.90;;;;;;5004328;28;20446;-85
2023/04/28 10:27:36;;;;;;;8.20;5.50;;;14.20;99.90;;;;;;5002982;28;20523;-86
2023/04/28 10:30:14;;;;;;;13.40;5.13;;;14.50;99.90;;;;;;5003457;28;20489;-86
2023/04/28 10:32:44;;;;;;;8.30;5.80;;;14.30;1.00;;;;;;5004464;28;20456;-86
2023/04/28 10:35:41;;;;;;;11.30;6.10;;;14.70;99.90;;;;;;5006581;28;20487;-87
2023/04/28 10:38:10;;;;;;;9.50;5.77;;;14.60;99.90;;;;;;5010449;28;20444;-88
2023/04/28 10:40:38;;;;;;;7.00;6.30;;;16.20;99.90;;;;;;5019623;28;20433;-87
2023/04/28 10:43:06;;;;;;;6.93;5.20;;;14.80;99.90;;;;;;5019673;28;20437;-88
2023/04/28 10:45:59;;;;;;;12.33;6.23;;;15.10;1.00;;;;;;5019356;28;20449;-86
2023/04/28 10:49:05;;;;;;;11.50;5.77;;;15.20;99.90;;;;;;5019120;28;20489;-86
2023/04/28 10:51:34;;;;;;;8.17;6.33;;;15.10;99.90;;;;;;5017186;28;20449;-85
2023/04/28 10:54:18;;;;;;;10.53;5.90;;;14.90;1.00;;;;;;5002876;28;20457;-87
2023/04/28 10:57:18;;;;;;;7.73;6.07;;;15.60;1.00;;;;;;5004307;28;20436;-87
2023/04/28 10:59:45;;;;;;;8.33;5.90;;;;;;;;;;5018963;28;20449;-87
2023/04/28 11:02:37;;;;;;;7.30;6.47;;;15.50;1.00;;;;;;5155514;22;20505;-88
2023/04/28 11:05:15;;;;;;;13.40;8.67;;;15.40;99.90;;;;;;5016496;28;20401;-87
2023/04/28 11:08:33;;;;;;;6.57;5.97;;;15.40;99.90;;;;;;5002183;28;20475;-87
2023/04/28 11:11:19;;;;;;;7.67;6.47;;;15.70;99.90;;;;;;5018546;28;20476;-86
2023/04/28 11:13:47;;;;;;;8.80;6.80;;;16.10;99.90;;;;;;5014118;28;20541;-86
2023/04/28 11:16:20;;;;;;;7.17;6.43;;;16.00;99.90;;;;;;5000811;28;20453;-87
2023/04/28 11:18:52;;;;;;;7.70;6.97;;;15.80;1.00;;;;;;5001199;28;20888;-88
2023/04/28 11:21:20;;;;;;;10.63;6.90;;;16.20;99.90;;;;;;5000181;28;20452;-86
2023/04/28 11:23:48;;;;;;;7.07;6.47;;;16.00;99.90;;;;;;5001463;28;20540;-88
2023/04/28 11:26:16;;;;;;;9.97;6.20;;;15.90;99.90;;;;;;5001870;28;20453;-87
2023/04/28 11:28:54;;;;;;;8.73;6.00;;;16.00;99.90;;;;;;5002880;28;20469;-87
2023/04/28 11:31:22;;;;;;;10.40;6.53;;;15.80;99.90;;;;;;5005387;28;20991;-86
2023/04/28 11:33:55;;;;;;;10.30;6.50;;;15.80;99.90;;;;;;5010097;28;20489;-86
2023/04/28 11:36:34;;;;;;;15.43;6.20;;;15.80;99.90;;;;;;5004608;28;20857;-86
2023/04/28 11:39:07;;;;;;;7.37;6.60;;;16.00;99.90;;;;;;5007646;28;20472;-87
2023/04/28 11:41:34;;;;;;;9.03;6.10;;;15.70;99.90;;;;;;5009692;28;20986;-87
2023/04/28 11:44:10;;;;;;;9.27;7.27;;;15.80;99.90;;;;;;5007588;28;20441;-88
2023/04/28 11:46:45;;;;;;;9.53;6.23;;;15.90;99.90;;;;;;4998864;28;20498;-87
2023/04/28 11:49:13;;;;;;;11.03;6.83;;;15.90;1.00;;;;;;4999799;28;20436;-86
2023/04/28 11:51:42;;;;;;;8.60;7.00;;;15.50;99.90;;;;;;5000902;28;20502;-86
2023/04/28 11:54:13;;;;;;;8.80;6.73;;;15.40;99.90;;;;;;5008897;28;20456;-87
2023/04/28 11:56:41;;;;;;;7.77;6.57;;;15.60;99.90;;;;;;5008831;28;20484;-86
2023/04/28 11:59:10;;;;;;;8.67;6.30;;;15.60;99.90;;;;;;5001353;28;20445;-87
2023/04/28 12:01:48;;;;;;;10.63;6.27;;;15.60;99.90;;;;;;5001025;28;20457;-87
2023/04/28 12:04:15;;;;;;;9.53;7.07;;;;;;;;;;5001525;28;20460;-88
2023/04/28 12:06:43;;;;;;;10.63;7.57;;;;;;;;;;5000914;28;20452;-87
2023/04/28 12:09:20;;;;;;;11.93;6.53;;;16.60;99.90;;;;;;5000838;28;20471;-87
2023/04/28 12:11:54;;;;;;;13.70;7.23;;;;;;;;;;5002875;28;20460;-86
2023/04/28 12:14:21;;;;;;;10.30;7.80;;;16.70;99.90;;;;;;5001496;28;20457;-86
2023/04/28 12:16:49;;;;;;;7.57;6.00;;;16.30;1.00;;;;;;5000995;28;20536;-87
2023/04/28 12:19:17;;;;;;;10.80;9.17;;;;;;;;;;5001956;28;20456;-88
2023/04/28 12:21:44;;;;;;;6.70;6.00;;;16.80;99.90;;;;;;5003812;28;20476;-87
2023/04/28 12:24:20;;;;;;;9.50;6.63;;;17.40;1.00;;;;;;5003650;28;20476;-87
2023/04/28 12:26:48;;;;;;;8.97;6.70;;;16.80;1.00;;;;;;5002739;28;20455;-87
2023/04/28 12:29:37;;;;;;;7.97;6.00;;;16.90;99.90;;;;;;5002089;28;20457;-86
2023/04/28 12:32:05;;;;;;;13.33;7.17;;;17.10;1.00;;;;;;5001843;28;20457;-86
2023/04/28 12:34:33;;;;;;;11.50;6.27;;;17.20;99.90;;;;;;5001446;28;20455;-86
2023/04/28 12:37:01;;;;;;;8.60;6.87;;;17.10;1.00;;;;;;4985085;28;20531;-86
2023/04/28 12:39:30;;;;;;;9.07;5.93;;;;;;;;;;5001877;28;20476;-86
2023/04/28 12:41:58;;;;;;;14.23;6.87;;;17.30;99.90;;;;;;5002316;28;20496;-86
2023/04/28 12:44:26;;;;;;;8.97;6.90;;;16.90;99.90;;;;;;5001971;28;20452;-87
2023/04/28 12:46:54;;;;;;;10.00;7.90;;;17.50;1.00;;;;;;5004508;28;20979;-86
2023/04/28 12:49:21;;;;;;;12.93;6.90;;;17.20;99.90;;;;;;5015127;28;20473;-87
2023/04/28 12:51:48;;;;;;;13.03;7.50;;;17.10;99.90;;;;;;5018676;28;20883;-86
2023/04/28 12:54:15;;;;;;;7.13;5.77;;;17.20;1.00;;;;;;5009043;28;20483;-87
2023/04/28 12:56:44;;;;;;;10.97;6.80;;;16.40;1.00;;;;;;5020545;28;20437;-84
2023/04/28 12:59:11;;;;;;;9.23;6.33;;;17.00;99.90;;;;;;5020455;28;20479;-85
2023/04/28 13:01:38;;;;;;;12.03;8.03;;;16.80;99.90;;;;;;5020472;28;20456;-87
2023/04/28 13:04:05;;;;;;;9.07;5.77;;;;;;;;;;5015921;28;20487;-86
2023/04/28 13:06:32;;;;;;;8.47;6.20;;;16.70;99.90;;;;;;5002969;28;20453;-87
2023/04/28 13:08:59;;;;;;;9.03;6.90;;;16.90;99.90;;;;;;5004070;28;20526;-87
2023/04/28 13:11:27;;;;;;;8.63;5.73;;;16.50;99.90;;;;;;5005222;28;20516;-87
2023/04/28 13:13:56;;;;;;;12.20;6.33;;;16.60;99.90;;;;;;5004233;28;20460;-87
2023/04/28 13:16:27;;;;;;;10.00;6.10;;;16.80;99.90;;;;;;5002475;28;20456;-86
2023/04/28 13:18:55;;;;;;;8.23;5.50;;;16.60;99.90;;;;;;5022998;22;20500;-79
2023/04/28 13:21:23;;;;;;;12.37;8.80;;;16.60;99.90;;;;;;5006489;28;20532;-80
2023/04/28 13:23:50;;;;;;;10.43;7.63;;;16.60;99.90;;;;;;5003500;28;20473;-80
2023/04/28 13:26:18;;;;;;;12.40;6.97;;;16.50;99.90;;;;;;5004352;28;20524;-80
2023/04/28 13:28:45;;;;;;;8.97;7.07;;;16.30;99.90;;;;;;5001296;28;20469;-80
2023/04/28 13:31:14;;;;;;;10.40;6.77;;;16.30;99.90;;;;;;5000941;28;20553;-79
2023/04/28 13:33:41;;;;;;;13.10;7.00;;;16.40;99.90;;;;;;5004860;28;20815;-81
2023/04/28 13:36:08;;;;;;;7.40;6.50;;;16.60;99.90;;;;;;5002307;28;20484;-80
2023/04/28 13:38:35;;;;;;;8.93;6.40;;;16.80;99.90;;;;;;5001811;28;20469;-80
2023/04/28 13:41:02;;;;;;;11.03;8.00;;;16.90;99.90;;;;;;5002704;28;20449;-80
2023/04/28 13:43:29;;;;;;;7.70;6.20;;;16.60;99.90;;;;;;5001577;28;20532;-80
2023/04/28 13:45:56;;;;;;;10.43;6.73;;;16.40;99.90;;;;;;5001206;28;20449;-80
2023/04/28 13:48:24;;;;;;;10.03;6.40;;;16.20;99.90;;;;;;5001910;28;20472;-80
2023/04/28 13:50:51;;;;;;;9.13;6.53;;;16.20;99.90;;;;;;5002141;28;20476;-80
2023/04/28 13:53:17;;;;;;;9.50;8.40;;;15.90;99.90;;;;;;5001699;28;21031;-80
2023/04/28 13:55:44;;;;;;;10.40;6.67;;;15.70;99.90;;;;;;5000851;28;20521;-79
2023/04/28 13:58:11;;;;;;;12.07;7.47;;;15.60;99.90;;;;;;4999879;28;20504;-80
2023/04/28 14:00:38;;;;;;;7.83;7.07;;;15.60;99.90;;;;;;5000785;28;20455;-80
2023/04/28 14:03:05;;;;;;;9.93;7.47;;;15.50;99.90;;;;;;4999558;28;20536;-79
2023/04/28 14:05:33;;;;;;;8.87;7.80;;;15.60;99.90;;;;;;5001304;28;20445;-80
2023/04/28 14:08:02;;;;;;;8.60;7.10;;;15.70;99.90;;;;;;5001206;28;20467;-81